sensor_id;sensor_type;location;lat;lon;timestamp;temperature;humidity
16736;DHT22;17990;49.548;9.730;2024-02-28T00:02:19;7.60;99.90
16736;DHT22;17990;49.548;9.730;2024-02-28T00:04:47;7.60;99.90
16736;DHT22;17990;49.548;9.730;2024-02-28T00:07:14;7.50;99.90
16736;DHT22;17990;49.548;9.730;2024-02-28T00:09:41;7.60;99.90
16736;DHT22;17990;49.548;9.730;2024-02-28T00:12:07;7.60;99.90
16736;DHT22;17990;49.548;9.730;2024-02-28T00:14:35;7.60;99.90
16736;DHT22;17990;49.548;9.730;2024-02-28T00:17:02;7.70;99.90
16736;DHT22;17990;49.548;9.730;2024-02-28T00:19:28;7.60;99.90
16736;DHT22;17990;49.548;9.730;2024-02-28T00:21:56;7.60;99.90
16736;DHT22;17990;49.548;9.730;2024-02-28T00:24:25;7.50;99.90
16736;DHT22;17990;49.548;9.730;2024-02-28T00:26:52;7.60;99.90
16736;DHT22;17990;49.548;9.730;2024-02-28T00:29:19;7.50;99.90
16736;DHT22;17990;49.548;9.730;2024-02-28T00:31:45;7.50;99.90
16736;DHT22;17990;49.548;9.730;2024-02-28T00:34:12;7.40;99.90
16736;DHT22;17990;49.548;9.730;2024-02-28T00:36:39;7.50;99.90
16736;DHT22;17990;49.548;9.730;2024-02-28T00:39:07;7.40;99.90
16736;DHT22;17990;49.548;9.730;2024-02-28T00:41:34;7.40;99.90
16736;DHT22;17990;49.548;9.730;2024-02-28T00:44:01;7.30;99.90
16736;DHT22;17990;49.548;9.730;2024-02-28T00:46:28;7.30;99.90
16736;DHT22;17990;49.548;9.730;2024-02-28T00:48:55;7.20;99.90
16736;DHT22;17990;49.548;9.730;2024-02-28T00:51:22;7.20;99.90
16736;DHT22;17990;49.548;9.730;2024-02-28T00:53:49;7.20;99.90
16736;DHT22;17990;49.548;9.730;2024-02-28T00:56:17;7.20;99.90
16736;DHT22;17990;49.548;9.730;2024-02-28T00:58:44;7.30;99.90
16736;DHT22;17990;49.548;9.730;2024-02-28T01:01:12;7.30;99.90
16736;DHT22;17990;49.548;9.730;2024-02-28T01:03:38;7.30;99.90
16736;DHT22;17990;49.548;9.730;2024-02-28T01:06:05;7.20;99.90
16736;DHT22;17990;49.548;9.730;2024-02-28T01:08:32;7.20;99.90
16736;DHT22;17990;49.548;9.730;2024-02-28T01:10:59;7.20;99.90
16736;DHT22;17990;49.548;9.730;2024-02-28T01:13:27;7.10;99.90
16736;DHT22;17990;49.548;9.730;2024-02-28T01:15:54;7.10;99.90
16736;DHT22;17990;49.548;9.730;2024-02-28T01:18:20;7.10;99.90
16736;DHT22;17990;49.548;9.730;2024-02-28T01:20:47;7.10;99.90
16736;DHT22;17990;49.548;9.730;2024-02-28T01:23:13;7.10;99.90
16736;DHT22;17990;49.548;9.730;2024-02-28T01:25:40;7.10;99.90
16736;DHT22;17990;49.548;9.730;2024-02-28T01:28:07;7.00;99.90
16736;DHT22;17990;49.548;9.730;2024-02-28T01:30:35;7.00;99.90
16736;DHT22;17990;49.548;9.730;2024-02-28T01:33:02;7.00;99.90
16736;DHT22;17990;49.548;9.730;2024-02-28T01:35:29;7.00;99.90
16736;DHT22;17990;49.548;9.730;2024-02-28T01:37:55;6.90;99.90
16736;DHT22;17990;49.548;9.730;2024-02-28T01:40:22;6.80;99.90
16736;DHT22;17990;49.548;9.730;2024-02-28T01:42:49;6.70;99.90
16736;DHT22;17990;49.548;9.730;2024-02-28T01:45:16;6.70;99.90
16736;DHT22;17990;49.548;9.730;2024-02-28T01:47:44;6.70;99.90
16736;DHT22;17990;49.548;9.730;2024-02-28T01:50:11;6.70;99.90
16736;DHT22;17990;49.548;9.730;2024-02-28T01:52:38;6.70;99.90
16736;DHT22;17990;49.548;9.730;2024-02-28T01:55:06;6.80;99.90
16736;DHT22;17990;49.548;9.730;2024-02-28T01:57:35;6.80;99.90
16736;DHT22;17990;49.548;9.730;2024-02-28T02:00:03;6.80;99.90
16736;DHT22;17990;49.548;9.730;2024-02-28T02:02:30;6.80;99.90
16736;DHT22;17990;49.548;9.730;2024-02-28T02:04:58;6.90;99.90
16736;DHT22;17990;49.548;9.730;2024-02-28T02:07:25;6.90;99.90
16736;DHT22;17990;49.548;9.730;2024-02-28T02:09:52;6.90;99.90
16736;DHT22;17990;49.548;9.730;2024-02-28T02:12:19;6.90;99.90
16736;DHT22;17990;49.548;9.730;2024-02-28T02:14:47;6.90;99.90
16736;DHT22;17990;49.548;9.730;2024-02-28T02:17:14;6.70;99.90
16736;DHT22;17990;49.548;9.730;2024-02-28T02:19:41;6.70;99.90
16736;DHT22;17990;49.548;9.730;2024-02-28T02:22:10;6.70;99.90
16736;DHT22;17990;49.548;9.730;2024-02-28T02:24:41;6.70;99.90
16736;DHT22;17990;49.548;9.730;2024-02-28T02:27:07;6.60;99.90
16736;DHT22;17990;49.548;9.730;2024-02-28T02:29:34;6.60;99.90
16736;DHT22;17990;49.548;9.730;2024-02-28T02:32:01;6.70;99.90
16736;DHT22;17990;49.548;9.730;2024-02-28T02:34:28;6.70;99.90
16736;DHT22;17990;49.548;9.730;2024-02-28T02:36:54;6.70;99.90
16736;DHT22;17990;49.548;9.730;2024-02-28T02:39:21;6.60;99.90
16736;DHT22;17990;49.548;9.730;2024-02-28T02:41:49;6.60;99.90
16736;DHT22;17990;49.548;9.730;2024-02-28T02:44:16;6.60;99.90
16736;DHT22;17990;49.548;9.730;2024-02-28T02:46:43;6.60;99.90
16736;DHT22;17990;49.548;9.730;2024-02-28T02:49:09;6.60;99.90
16736;DHT22;17990;49.548;9.730;2024-02-28T02:51:36;6.50;99.90
16736;DHT22;17990;49.548;9.730;2024-02-28T02:54:03;6.50;99.90
16736;DHT22;17990;49.548;9.730;2024-02-28T02:56:30;6.40;99.90
16736;DHT22;17990;49.548;9.730;2024-02-28T02:58:58;6.40;99.90
16736;DHT22;17990;49.548;9.730;2024-02-28T03:01:25;6.40;99.90
16736;DHT22;17990;49.548;9.730;2024-02-28T03:03:51;6.30;99.90
16736;DHT22;17990;49.548;9.730;2024-02-28T03:06:19;6.30;99.90
16736;DHT22;17990;49.548;9.730;2024-02-28T03:08:46;6.30;99.90
16736;DHT22;17990;49.548;9.730;2024-02-28T03:11:13;6.40;99.90
16736;DHT22;17990;49.548;9.730;2024-02-28T03:13:39;6.30;99.90
16736;DHT22;17990;49.548;9.730;2024-02-28T03:16:08;6.40;99.90
16736;DHT22;17990;49.548;9.730;2024-02-28T03:18:34;6.30;99.90
16736;DHT22;17990;49.548;9.730;2024-02-28T03:21:01;6.30;99.90
16736;DHT22;17990;49.548;9.730;2024-02-28T03:23:28;6.40;99.90
16736;DHT22;17990;49.548;9.730;2024-02-28T03:25:55;6.40;99.90
16736;DHT22;17990;49.548;9.730;2024-02-28T03:28:21;6.40;99.90
16736;DHT22;17990;49.548;9.730;2024-02-28T03:30:48;6.40;99.90
16736;DHT22;17990;49.548;9.730;2024-02-28T03:33:16;6.40;99.90
16736;DHT22;17990;49.548;9.730;2024-02-28T03:35:43;6.40;99.90
16736;DHT22;17990;49.548;9.730;2024-02-28T03:38:10;6.40;99.90
16736;DHT22;17990;49.548;9.730;2024-02-28T03:40:37;6.40;99.90
16736;DHT22;17990;49.548;9.730;2024-02-28T03:43:04;6.40;99.90
16736;DHT22;17990;49.548;9.730;2024-02-28T03:45:30;6.40;99.90
16736;DHT22;17990;49.548;9.730;2024-02-28T03:47:57;6.30;99.90
16736;DHT22;17990;49.548;9.730;2024-02-28T03:50:25;6.30;99.90
16736;DHT22;17990;49.548;9.730;2024-02-28T03:52:52;6.30;99.90
16736;DHT22;17990;49.548;9.730;2024-02-28T03:55:19;6.40;99.90
16736;DHT22;17990;49.548;9.730;2024-02-28T03:57:47;6.40;99.90
16736;DHT22;17990;49.548;9.730;2024-02-28T04:00:14;6.40;99.90
16736;DHT22;17990;49.548;9.730;2024-02-28T04:02:41;6.40;99.90
16736;DHT22;17990;49.548;9.730;2024-02-28T04:05:08;6.40;99.90
16736;DHT22;17990;49.548;9.730;2024-02-28T04:07:36;6.40;99.90
16736;DHT22;17990;49.548;9.730;2024-02-28T04:10:04;6.40;99.90
16736;DHT22;17990;49.548;9.730;2024-02-28T04:12:31;6.30;99.90
16736;DHT22;17990;49.548;9.730;2024-02-28T04:14:58;6.40;99.90
16736;DHT22;17990;49.548;9.730;2024-02-28T04:17:25;6.40;99.90
16736;DHT22;17990;49.548;9.730;2024-02-28T04:19:52;6.30;99.90
16736;DHT22;17990;49.548;9.730;2024-02-28T04:22:18;6.30;99.90
16736;DHT22;17990;49.548;9.730;2024-02-28T04:24:46;6.30;99.90
16736;DHT22;17990;49.548;9.730;2024-02-28T04:27:13;6.30;99.90
16736;DHT22;17990;49.548;9.730;2024-02-28T04:29:39;6.30;99.90
16736;DHT22;17990;49.548;9.730;2024-02-28T04:32:06;6.30;99.90
16736;DHT22;17990;49.548;9.730;2024-02-28T04:34:33;6.40;99.90
16736;DHT22;17990;49.548;9.730;2024-02-28T04:37:00;6.40;99.90
16736;DHT22;17990;49.548;9.730;2024-02-28T04:39:26;6.40;99.90
16736;DHT22;17990;49.548;9.730;2024-02-28T04:41:54;6.40;99.90
16736;DHT22;17990;49.548;9.730;2024-02-28T04:44:21;6.30;99.90
16736;DHT22;17990;49.548;9.730;2024-02-28T04:46:48;6.30;99.90
16736;DHT22;17990;49.548;9.730;2024-02-28T04:49:14;6.20;99.90
16736;DHT22;17990;49.548;9.730;2024-02-28T04:51:41;6.20;99.90
16736;DHT22;17990;49.548;9.730;2024-02-28T04:54:08;6.20;99.90
16736;DHT22;17990;49.548;9.730;2024-02-28T04:56:39;6.10;99.90
16736;DHT22;17990;49.548;9.730;2024-02-28T04:59:07;6.10;99.90
16736;DHT22;17990;49.548;9.730;2024-02-28T05:01:34;6.10;99.90
16736;DHT22;17990;49.548;9.730;2024-02-28T05:04:05;6.10;99.90
16736;DHT22;17990;49.548;9.730;2024-02-28T05:06:31;6.10;99.90
16736;DHT22;17990;49.548;9.730;2024-02-28T05:08:58;6.10;99.90
16736;DHT22;17990;49.548;9.730;2024-02-28T05:11:25;6.10;99.90
16736;DHT22;17990;49.548;9.730;2024-02-28T05:13:52;6.10;99.90
16736;DHT22;17990;49.548;9.730;2024-02-28T05:16:20;6.10;99.90
16736;DHT22;17990;49.548;9.730;2024-02-28T05:18:47;6.10;99.90
16736;DHT22;17990;49.548;9.730;2024-02-28T05:21:14;6.10;99.90
16736;DHT22;17990;49.548;9.730;2024-02-28T05:23:40;6.10;99.90
16736;DHT22;17990;49.548;9.730;2024-02-28T05:26:07;6.10;99.90
16736;DHT22;17990;49.548;9.730;2024-02-28T05:28:34;6.10;99.90
16736;DHT22;17990;49.548;9.730;2024-02-28T05:31:02;6.10;99.90
16736;DHT22;17990;49.548;9.730;2024-02-28T05:33:30;6.10;99.90
16736;DHT22;17990;49.548;9.730;2024-02-28T05:35:57;6.10;99.90
16736;DHT22;17990;49.548;9.730;2024-02-28T05:38:25;6.00;99.90
16736;DHT22;17990;49.548;9.730;2024-02-28T05:40:51;6.10;99.90
16736;DHT22;17990;49.548;9.730;2024-02-28T05:43:18;6.10;99.90
16736;DHT22;17990;49.548;9.730;2024-02-28T05:45:45;6.10;99.90
16736;DHT22;17990;49.548;9.730;2024-02-28T05:48:11;6.10;99.90
16736;DHT22;17990;49.548;9.730;2024-02-28T05:50:39;6.10;99.90
16736;DHT22;17990;49.548;9.730;2024-02-28T05:53:06;6.10;99.90
16736;DHT22;17990;49.548;9.730;2024-02-28T05:55:33;6.10;99.90
16736;DHT22;17990;49.548;9.730;2024-02-28T05:58:00;6.10;99.90
16736;DHT22;17990;49.548;9.730;2024-02-28T06:00:26;6.10;99.90
16736;DHT22;17990;49.548;9.730;2024-02-28T06:02:53;6.10;99.90
16736;DHT22;17990;49.548;9.730;2024-02-28T06:05:20;6.10;99.90
16736;DHT22;17990;49.548;9.730;2024-02-28T06:07:48;6.10;99.90
16736;DHT22;17990;49.548;9.730;2024-02-28T06:10:15;6.00;99.90
16736;DHT22;17990;49.548;9.730;2024-02-28T06:12:41;6.00;99.90
16736;DHT22;17990;49.548;9.730;2024-02-28T06:15:08;6.00;99.90
16736;DHT22;17990;49.548;9.730;2024-02-28T06:17:36;6.00;99.90
16736;DHT22;17990;49.548;9.730;2024-02-28T06:20:03;6.10;99.90
16736;DHT22;17990;49.548;9.730;2024-02-28T06:22:30;6.10;99.90
16736;DHT22;17990;49.548;9.730;2024-02-28T06:24:58;6.10;99.90
16736;DHT22;17990;49.548;9.730;2024-02-28T06:27:24;6.10;99.90
16736;DHT22;17990;49.548;9.730;2024-02-28T06:29:52;6.10;99.90
16736;DHT22;17990;49.548;9.730;2024-02-28T06:32:19;6.10;99.90
16736;DHT22;17990;49.548;9.730;2024-02-28T06:34:45;6.10;99.90
16736;DHT22;17990;49.548;9.730;2024-02-28T06:37:12;6.20;99.90
16736;DHT22;17990;49.548;9.730;2024-02-28T06:39:39;6.20;99.90
16736;DHT22;17990;49.548;9.730;2024-02-28T06:42:08;6.20;99.90
16736;DHT22;17990;49.548;9.730;2024-02-28T06:44:34;6.20;99.90
16736;DHT22;17990;49.548;9.730;2024-02-28T06:47:01;6.20;99.90
16736;DHT22;17990;49.548;9.730;2024-02-28T06:49:28;6.20;99.90
16736;DHT22;17990;49.548;9.730;2024-02-28T06:51:54;6.20;99.90
16736;DHT22;17990;49.548;9.730;2024-02-28T06:54:23;6.20;99.90
16736;DHT22;17990;49.548;9.730;2024-02-28T06:56:50;6.20;99.90
16736;DHT22;17990;49.548;9.730;2024-02-28T06:59:18;6.30;99.90
16736;DHT22;17990;49.548;9.730;2024-02-28T07:01:45;6.20;99.90
16736;DHT22;17990;49.548;9.730;2024-02-28T07:04:12;6.20;99.90
16736;DHT22;17990;49.548;9.730;2024-02-28T07:06:38;6.10;99.90
16736;DHT22;17990;49.548;9.730;2024-02-28T07:09:07;6.10;99.90
16736;DHT22;17990;49.548;9.730;2024-02-28T07:11:34;6.20;99.90
16736;DHT22;17990;49.548;9.730;2024-02-28T07:14:01;6.20;99.90
16736;DHT22;17990;49.548;9.730;2024-02-28T07:16:29;6.30;99.90
16736;DHT22;17990;49.548;9.730;2024-02-28T07:18:57;6.40;99.90
16736;DHT22;17990;49.548;9.730;2024-02-28T07:21:24;6.40;99.90
16736;DHT22;17990;49.548;9.730;2024-02-28T07:23:51;6.50;99.90
16736;DHT22;17990;49.548;9.730;2024-02-28T07:26:18;6.50;99.90
16736;DHT22;17990;49.548;9.730;2024-02-28T07:28:44;6.60;99.90
16736;DHT22;17990;49.548;9.730;2024-02-28T07:31:14;6.70;99.90
16736;DHT22;17990;49.548;9.730;2024-02-28T07:33:43;6.70;99.90
16736;DHT22;17990;49.548;9.730;2024-02-28T07:36:10;6.70;99.90
16736;DHT22;17990;49.548;9.730;2024-02-28T07:38:36;6.80;99.90
16736;DHT22;17990;49.548;9.730;2024-02-28T07:41:03;6.80;99.90
16736;DHT22;17990;49.548;9.730;2024-02-28T07:43:31;6.90;99.90
16736;DHT22;17990;49.548;9.730;2024-02-28T07:46:02;6.90;99.90
16736;DHT22;17990;49.548;9.730;2024-02-28T07:48:29;6.90;99.90
16736;DHT22;17990;49.548;9.730;2024-02-28T07:50:57;6.80;99.90
16736;DHT22;17990;49.548;9.730;2024-02-28T07:53:24;6.80;99.90
16736;DHT22;17990;49.548;9.730;2024-02-28T07:55:50;6.80;99.90
16736;DHT22;17990;49.548;9.730;2024-02-28T07:58:17;6.80;99.90
16736;DHT22;17990;49.548;9.730;2024-02-28T08:00:44;6.80;99.90
16736;DHT22;17990;49.548;9.730;2024-02-28T08:03:11;6.80;99.90
16736;DHT22;17990;49.548;9.730;2024-02-28T08:05:38;6.90;99.90
16736;DHT22;17990;49.548;9.730;2024-02-28T08:08:07;6.90;99.90
16736;DHT22;17990;49.548;9.730;2024-02-28T08:10:33;7.10;99.90
16736;DHT22;17990;49.548;9.730;2024-02-28T08:13:00;7.00;99.90
16736;DHT22;17990;49.548;9.730;2024-02-28T08:15:27;7.10;99.90
16736;DHT22;17990;49.548;9.730;2024-02-28T08:17:54;7.20;99.90
16736;DHT22;17990;49.548;9.730;2024-02-28T08:20:21;7.20;99.90
16736;DHT22;17990;49.548;9.730;2024-02-28T08:22:47;7.10;99.90
16736;DHT22;17990;49.548;9.730;2024-02-28T08:25:15;7.10;99.90
16736;DHT22;17990;49.548;9.730;2024-02-28T08:27:42;7.10;99.90
16736;DHT22;17990;49.548;9.730;2024-02-28T08:30:09;6.90;99.90
16736;DHT22;17990;49.548;9.730;2024-02-28T08:32:36;6.90;99.90
16736;DHT22;17990;49.548;9.730;2024-02-28T08:35:06;6.90;99.90
16736;DHT22;17990;49.548;9.730;2024-02-28T08:37:33;6.80;99.90
16736;DHT22;17990;49.548;9.730;2024-02-28T08:40:00;6.80;99.90
16736;DHT22;17990;49.548;9.730;2024-02-28T08:42:28;6.80;99.90
16736;DHT22;17990;49.548;9.730;2024-02-28T08:44:54;6.80;99.90
16736;DHT22;17990;49.548;9.730;2024-02-28T08:47:23;6.80;99.90
16736;DHT22;17990;49.548;9.730;2024-02-28T08:49:50;6.90;99.90
16736;DHT22;17990;49.548;9.730;2024-02-28T08:52:17;6.80;99.90
16736;DHT22;17990;49.548;9.730;2024-02-28T08:54:43;7.00;99.90
16736;DHT22;17990;49.548;9.730;2024-02-28T08:57:10;7.10;99.90
16736;DHT22;17990;49.548;9.730;2024-02-28T08:59:38;7.40;99.90
16736;DHT22;17990;49.548;9.730;2024-02-28T09:02:05;7.60;99.90
16736;DHT22;17990;49.548;9.730;2024-02-28T09:04:32;7.80;99.90
16736;DHT22;17990;49.548;9.730;2024-02-28T09:06:59;7.90;99.90
16736;DHT22;17990;49.548;9.730;2024-02-28T09:09:26;8.00;99.90
16736;DHT22;17990;49.548;9.730;2024-02-28T09:11:53;8.10;99.90
16736;DHT22;17990;49.548;9.730;2024-02-28T09:14:20;8.30;99.90
16736;DHT22;17990;49.548;9.730;2024-02-28T09:16:48;8.50;99.90
16736;DHT22;17990;49.548;9.730;2024-02-28T09:19:15;8.60;99.90
16736;DHT22;17990;49.548;9.730;2024-02-28T09:21:42;8.70;99.90
16736;DHT22;17990;49.548;9.730;2024-02-28T09:24:09;8.70;99.90
16736;DHT22;17990;49.548;9.730;2024-02-28T09:26:38;8.80;99.90
16736;DHT22;17990;49.548;9.730;2024-02-28T09:29:05;8.90;99.90
16736;DHT22;17990;49.548;9.730;2024-02-28T09:31:32;8.90;99.90
16736;DHT22;17990;49.548;9.730;2024-02-28T09:34:00;9.00;99.90
16736;DHT22;17990;49.548;9.730;2024-02-28T09:36:29;9.10;99.90
16736;DHT22;17990;49.548;9.730;2024-02-28T09:38:56;9.20;99.90
16736;DHT22;17990;49.548;9.730;2024-02-28T09:41:23;9.20;99.90
16736;DHT22;17990;49.548;9.730;2024-02-28T09:43:52;9.30;99.90
16736;DHT22;17990;49.548;9.730;2024-02-28T09:46:20;9.40;99.90
16736;DHT22;17990;49.548;9.730;2024-02-28T09:48:47;9.60;99.90
16736;DHT22;17990;49.548;9.730;2024-02-28T09:51:18;9.80;99.90
16736;DHT22;17990;49.548;9.730;2024-02-28T09:53:49;9.70;99.90
16736;DHT22;17990;49.548;9.730;2024-02-28T09:56:16;9.60;99.90
16736;DHT22;17990;49.548;9.730;2024-02-28T09:58:44;9.70;99.90
16736;DHT22;17990;49.548;9.730;2024-02-28T10:01:11;10.10;99.90
16736;DHT22;17990;49.548;9.730;2024-02-28T10:03:43;10.10;99.90
16736;DHT22;17990;49.548;9.730;2024-02-28T10:06:10;10.00;99.90
16736;DHT22;17990;49.548;9.730;2024-02-28T10:08:40;9.80;99.90
16736;DHT22;17990;49.548;9.730;2024-02-28T10:11:07;9.80;99.90
16736;DHT22;17990;49.548;9.730;2024-02-28T10:13:33;9.70;99.90
16736;DHT22;17990;49.548;9.730;2024-02-28T10:16:00;9.70;99.90
16736;DHT22;17990;49.548;9.730;2024-02-28T10:18:30;9.80;99.90
16736;DHT22;17990;49.548;9.730;2024-02-28T10:20:57;10.20;99.90
16736;DHT22;17990;49.548;9.730;2024-02-28T10:23:23;10.30;99.90
16736;DHT22;17990;49.548;9.730;2024-02-28T10:25:52;10.50;99.90
16736;DHT22;17990;49.548;9.730;2024-02-28T10:28:19;10.80;99.90
16736;DHT22;17990;49.548;9.730;2024-02-28T10:30:45;11.10;99.90
16736;DHT22;17990;49.548;9.730;2024-02-28T10:33:12;11.00;99.90
16736;DHT22;17990;49.548;9.730;2024-02-28T10:35:40;11.10;99.90
16736;DHT22;17990;49.548;9.730;2024-02-28T10:38:10;11.00;99.90
16736;DHT22;17990;49.548;9.730;2024-02-28T10:40:37;10.70;99.90
16736;DHT22;17990;49.548;9.730;2024-02-28T10:43:07;10.80;99.90
16736;DHT22;17990;49.548;9.730;2024-02-28T10:45:35;10.80;99.90
16736;DHT22;17990;49.548;9.730;2024-02-28T10:48:04;11.10;99.90
16736;DHT22;17990;49.548;9.730;2024-02-28T10:50:30;10.80;99.90
16736;DHT22;17990;49.548;9.730;2024-02-28T10:53:01;10.80;99.90
16736;DHT22;17990;49.548;9.730;2024-02-28T10:55:33;10.90;99.90
16736;DHT22;17990;49.548;9.730;2024-02-28T10:58:02;10.70;99.90
16736;DHT22;17990;49.548;9.730;2024-02-28T11:00:32;10.40;99.90
16736;DHT22;17990;49.548;9.730;2024-02-28T11:02:59;10.30;99.90
16736;DHT22;17990;49.548;9.730;2024-02-28T11:05:35;10.10;99.90
16736;DHT22;17990;49.548;9.730;2024-02-28T11:08:02;10.00;99.90
16736;DHT22;17990;49.548;9.730;2024-02-28T11:10:31;9.90;99.90
16736;DHT22;17990;49.548;9.730;2024-02-28T11:12:59;9.80;99.90
16736;DHT22;17990;49.548;9.730;2024-02-28T11:15:26;9.70;99.90
16736;DHT22;17990;49.548;9.730;2024-02-28T11:17:54;9.70;99.90
16736;DHT22;17990;49.548;9.730;2024-02-28T11:20:21;9.60;99.90
16736;DHT22;17990;49.548;9.730;2024-02-28T11:22:48;9.50;99.90
16736;DHT22;17990;49.548;9.730;2024-02-28T11:25:15;9.80;99.90
16736;DHT22;17990;49.548;9.730;2024-02-28T11:27:46;10.30;99.90
16736;DHT22;17990;49.548;9.730;2024-02-28T11:30:13;10.60;99.90
16736;DHT22;17990;49.548;9.730;2024-02-28T11:32:40;10.70;99.90
16736;DHT22;17990;49.548;9.730;2024-02-28T11:35:09;10.50;99.90
16736;DHT22;17990;49.548;9.730;2024-02-28T11:37:37;10.40;99.90
16736;DHT22;17990;49.548;9.730;2024-02-28T11:40:07;10.50;99.90
16736;DHT22;17990;49.548;9.730;2024-02-28T11:42:34;10.50;99.90
16736;DHT22;17990;49.548;9.730;2024-02-28T11:45:01;10.60;99.90
16736;DHT22;17990;49.548;9.730;2024-02-28T11:47:31;10.50;99.90
16736;DHT22;17990;49.548;9.730;2024-02-28T11:49:58;10.50;99.90
16736;DHT22;17990;49.548;9.730;2024-02-28T11:52:27;10.60;99.90
16736;DHT22;17990;49.548;9.730;2024-02-28T11:54:54;10.40;99.90
16736;DHT22;17990;49.548;9.730;2024-02-28T11:57:21;10.50;99.90
16736;DHT22;17990;49.548;9.730;2024-02-28T11:59:48;10.60;99.90
16736;DHT22;17990;49.548;9.730;2024-02-28T12:02:15;10.60;99.90
16736;DHT22;17990;49.548;9.730;2024-02-28T12:04:42;10.70;99.90
16736;DHT22;17990;49.548;9.730;2024-02-28T12:07:09;10.80;99.90
16736;DHT22;17990;49.548;9.730;2024-02-28T12:09:37;11.00;99.90
16736;DHT22;17990;49.548;9.730;2024-02-28T12:12:06;11.00;99.90
16736;DHT22;17990;49.548;9.730;2024-02-28T12:14:36;11.00;99.90
16736;DHT22;17990;49.548;9.730;2024-02-28T12:17:04;11.20;99.90
16736;DHT22;17990;49.548;9.730;2024-02-28T12:19:31;11.30;99.90
16736;DHT22;17990;49.548;9.730;2024-02-28T12:21:57;11.40;99.90
16736;DHT22;17990;49.548;9.730;2024-02-28T12:24:24;11.30;99.90
16736;DHT22;17990;49.548;9.730;2024-02-28T12:26:52;11.30;99.90
16736;DHT22;17990;49.548;9.730;2024-02-28T12:29:19;11.30;99.90
16736;DHT22;17990;49.548;9.730;2024-02-28T12:31:46;11.20;99.90
16736;DHT22;17990;49.548;9.730;2024-02-28T12:34:13;11.30;99.90
16736;DHT22;17990;49.548;9.730;2024-02-28T12:36:40;11.20;99.90
16736;DHT22;17990;49.548;9.730;2024-02-28T12:39:07;11.30;99.90
16736;DHT22;17990;49.548;9.730;2024-02-28T12:41:37;11.50;99.90
16736;DHT22;17990;49.548;9.730;2024-02-28T12:44:05;11.50;99.90
16736;DHT22;17990;49.548;9.730;2024-02-28T12:46:32;11.70;99.90
16736;DHT22;17990;49.548;9.730;2024-02-28T12:48:59;11.50;99.90
16736;DHT22;17990;49.548;9.730;2024-02-28T12:51:37;11.50;99.90
16736;DHT22;17990;49.548;9.730;2024-02-28T12:54:04;11.50;99.90
16736;DHT22;17990;49.548;9.730;2024-02-28T12:56:31;11.70;99.90
16736;DHT22;17990;49.548;9.730;2024-02-28T12:58:58;11.70;99.90
16736;DHT22;17990;49.548;9.730;2024-02-28T13:01:26;11.80;99.90
16736;DHT22;17990;49.548;9.730;2024-02-28T13:03:53;11.90;99.90
16736;DHT22;17990;49.548;9.730;2024-02-28T13:06:20;12.00;99.90
16736;DHT22;17990;49.548;9.730;2024-02-28T13:08:47;12.00;99.90
16736;DHT22;17990;49.548;9.730;2024-02-28T13:11:17;12.00;99.90
16736;DHT22;17990;49.548;9.730;2024-02-28T13:13:44;11.80;99.90
16736;DHT22;17990;49.548;9.730;2024-02-28T13:16:11;11.80;99.90
16736;DHT22;17990;49.548;9.730;2024-02-28T13:18:39;11.90;99.90
16736;DHT22;17990;49.548;9.730;2024-02-28T13:21:06;12.10;99.90
16736;DHT22;17990;49.548;9.730;2024-02-28T13:23:33;12.20;99.90
16736;DHT22;17990;49.548;9.730;2024-02-28T13:26:00;12.20;99.90
16736;DHT22;17990;49.548;9.730;2024-02-28T13:28:27;12.30;99.90
16736;DHT22;17990;49.548;9.730;2024-02-28T13:30:56;12.40;99.90
16736;DHT22;17990;49.548;9.730;2024-02-28T13:33:22;12.40;99.90
16736;DHT22;17990;49.548;9.730;2024-02-28T13:35:51;12.40;99.90
16736;DHT22;17990;49.548;9.730;2024-02-28T13:38:18;12.50;99.90
16736;DHT22;17990;49.548;9.730;2024-02-28T13:40:45;12.50;99.90
16736;DHT22;17990;49.548;9.730;2024-02-28T13:43:12;12.60;99.90
16736;DHT22;17990;49.548;9.730;2024-02-28T13:45:39;12.70;99.90
16736;DHT22;17990;49.548;9.730;2024-02-28T13:48:15;12.50;99.90
16736;DHT22;17990;49.548;9.730;2024-02-28T13:50:43;12.50;99.90
16736;DHT22;17990;49.548;9.730;2024-02-28T13:53:11;12.50;99.90
16736;DHT22;17990;49.548;9.730;2024-02-28T13:55:38;12.50;99.90
16736;DHT22;17990;49.548;9.730;2024-02-28T13:58:05;12.50;99.90
16736;DHT22;17990;49.548;9.730;2024-02-28T14:00:33;12.60;99.90
16736;DHT22;17990;49.548;9.730;2024-02-28T14:03:00;12.60;99.90
16736;DHT22;17990;49.548;9.730;2024-02-28T14:05:27;12.70;99.90
16736;DHT22;17990;49.548;9.730;2024-02-28T14:07:54;12.70;99.90
16736;DHT22;17990;49.548;9.730;2024-02-28T14:10:22;12.70;99.90
16736;DHT22;17990;49.548;9.730;2024-02-28T14:12:49;12.80;99.90
16736;DHT22;17990;49.548;9.730;2024-02-28T14:15:18;12.80;99.90
16736;DHT22;17990;49.548;9.730;2024-02-28T14:17:45;12.90;99.90
16736;DHT22;17990;49.548;9.730;2024-02-28T14:20:11;12.80;99.90
16736;DHT22;17990;49.548;9.730;2024-02-28T14:22:38;12.80;99.90
16736;DHT22;17990;49.548;9.730;2024-02-28T14:25:08;12.80;99.90
16736;DHT22;17990;49.548;9.730;2024-02-28T14:27:38;12.80;99.90
16736;DHT22;17990;49.548;9.730;2024-02-28T14:30:06;12.80;99.90
16736;DHT22;17990;49.548;9.730;2024-02-28T14:32:34;12.70;99.90
16736;DHT22;17990;49.548;9.730;2024-02-28T14:35:01;12.80;99.90
16736;DHT22;17990;49.548;9.730;2024-02-28T14:37:28;12.70;99.90
16736;DHT22;17990;49.548;9.730;2024-02-28T14:39:55;12.60;99.90
16736;DHT22;17990;49.548;9.730;2024-02-28T14:42:21;12.70;99.90
16736;DHT22;17990;49.548;9.730;2024-02-28T14:44:50;12.70;99.90
16736;DHT22;17990;49.548;9.730;2024-02-28T14:47:16;12.60;99.90
16736;DHT22;17990;49.548;9.730;2024-02-28T14:49:43;12.50;99.90
16736;DHT22;17990;49.548;9.730;2024-02-28T14:52:10;12.60;99.90
16736;DHT22;17990;49.548;9.730;2024-02-28T14:54:37;12.60;99.90
16736;DHT22;17990;49.548;9.730;2024-02-28T14:57:04;12.50;99.90
16736;DHT22;17990;49.548;9.730;2024-02-28T14:59:31;12.40;99.90
16736;DHT22;17990;49.548;9.730;2024-02-28T15:01:59;12.30;99.90
16736;DHT22;17990;49.548;9.730;2024-02-28T15:04:26;12.10;99.90
16736;DHT22;17990;49.548;9.730;2024-02-28T15:06:53;12.00;99.90
16736;DHT22;17990;49.548;9.730;2024-02-28T15:09:20;12.00;99.90
16736;DHT22;17990;49.548;9.730;2024-02-28T15:11:47;12.00;99.90
16736;DHT22;17990;49.548;9.730;2024-02-28T15:14:14;12.00;99.90
16736;DHT22;17990;49.548;9.730;2024-02-28T15:16:41;12.00;99.90
16736;DHT22;17990;49.548;9.730;2024-02-28T15:19:09;12.00;99.90
16736;DHT22;17990;49.548;9.730;2024-02-28T15:21:36;11.90;99.90
16736;DHT22;17990;49.548;9.730;2024-02-28T15:24:03;11.90;99.90
16736;DHT22;17990;49.548;9.730;2024-02-28T15:26:30;11.80;99.90
16736;DHT22;17990;49.548;9.730;2024-02-28T15:28:57;11.80;99.90
16736;DHT22;17990;49.548;9.730;2024-02-28T15:31:24;11.80;99.90
16736;DHT22;17990;49.548;9.730;2024-02-28T15:33:51;11.80;99.90
16736;DHT22;17990;49.548;9.730;2024-02-28T15:36:19;11.70;99.90
16736;DHT22;17990;49.548;9.730;2024-02-28T15:38:45;11.70;99.90
16736;DHT22;17990;49.548;9.730;2024-02-28T15:41:12;11.60;99.90